sensor_id;sensor_type;location;lat;lon;timestamp;P1;durP1;ratioP1;P2;durP2;ratioP2
54261;SDS011;40174;52.364;6.452;2023-02-15T00:01:05;26.42;;;9.95;;
54261;SDS011;40174;52.364;6.452;2023-02-15T00:03:32;28.63;;;10.25;;
54261;SDS011;40174;52.364;6.452;2023-02-15T00:06:01;27.13;;;10.27;;
54261;SDS011;40174;52.364;6.452;2023-02-15T00:08:28;24.85;;;9.25;;
54261;SDS011;40174;52.364;6.452;2023-02-15T00:11:02;28.15;;;9.63;;
54261;SDS011;40174;52.364;6.452;2023-02-15T00:13:29;26.10;;;9.95;;
54261;SDS011;40174;52.364;6.452;2023-02-15T00:15:59;31.40;;;11.50;;
54261;SDS011;40174;52.364;6.452;2023-02-15T00:18:27;33.63;;;12.30;;
54261;SDS011;40174;52.364;6.452;2023-02-15T00:20:53;30.55;;;11.43;;
54261;SDS011;40174;52.364;6.452;2023-02-15T00:23:21;27.65;;;9.82;;
54261;SDS011;40174;52.364;6.452;2023-02-15T00:25:48;33.58;;;12.05;;
54261;SDS011;40174;52.364;6.452;2023-02-15T00:28:15;31.05;;;12.00;;
54261;SDS011;40174;52.364;6.452;2023-02-15T00:30:41;33.85;;;12.38;;
54261;SDS011;40174;52.364;6.452;2023-02-15T00:33:08;30.23;;;11.95;;
54261;SDS011;40174;52.364;6.452;2023-02-15T00:35:35;27.25;;;11.55;;
54261;SDS011;40174;52.364;6.452;2023-02-15T00:38:01;27.92;;;11.75;;
54261;SDS011;40174;52.364;6.452;2023-02-15T00:40:30;31.50;;;12.38;;
54261;SDS011;40174;52.364;6.452;2023-02-15T00:42:57;30.98;;;12.02;;
54261;SDS011;40174;52.364;6.452;2023-02-15T00:45:24;30.05;;;11.52;;
54261;SDS011;40174;52.364;6.452;2023-02-15T00:47:51;29.23;;;11.32;;
54261;SDS011;40174;52.364;6.452;2023-02-15T00:50:17;35.78;;;13.43;;
54261;SDS011;40174;52.364;6.452;2023-02-15T00:52:45;39.50;;;14.02;;
54261;SDS011;40174;52.364;6.452;2023-02-15T00:55:11;33.28;;;12.77;;
54261;SDS011;40174;52.364;6.452;2023-02-15T00:57:39;37.17;;;14.43;;
54261;SDS011;40174;52.364;6.452;2023-02-15T01:00:06;35.88;;;13.80;;
54261;SDS011;40174;52.364;6.452;2023-02-15T01:02:34;34.30;;;13.35;;
54261;SDS011;40174;52.364;6.452;2023-02-15T01:05:01;29.10;;;12.45;;
54261;SDS011;40174;52.364;6.452;2023-02-15T01:07:27;28.05;;;11.55;;
54261;SDS011;40174;52.364;6.452;2023-02-15T01:09:54;32.58;;;11.43;;
54261;SDS011;40174;52.364;6.452;2023-02-15T01:12:20;28.92;;;10.90;;
54261;SDS011;40174;52.364;6.452;2023-02-15T01:14:48;31.05;;;12.00;;
54261;SDS011;40174;52.364;6.452;2023-02-15T01:17:15;27.48;;;10.60;;
54261;SDS011;40174;52.364;6.452;2023-02-15T01:19:42;27.55;;;11.68;;
54261;SDS011;40174;52.364;6.452;2023-02-15T01:22:08;27.85;;;10.05;;
54261;SDS011;40174;52.364;6.452;2023-02-15T01:24:35;29.70;;;11.13;;
54261;SDS011;40174;52.364;6.452;2023-02-15T01:27:02;29.15;;;10.80;;
54261;SDS011;40174;52.364;6.452;2023-02-15T01:29:29;29.13;;;11.35;;
54261;SDS011;40174;52.364;6.452;2023-02-15T01:31:57;28.50;;;11.93;;
54261;SDS011;40174;52.364;6.452;2023-02-15T01:34:23;25.35;;;11.63;;
54261;SDS011;40174;52.364;6.452;2023-02-15T01:36:50;28.52;;;12.48;;
54261;SDS011;40174;52.364;6.452;2023-02-15T01:39:17;23.83;;;10.27;;
54261;SDS011;40174;52.364;6.452;2023-02-15T01:41:43;29.85;;;11.38;;
54261;SDS011;40174;52.364;6.452;2023-02-15T01:47:17;24.30;;;11.32;;
54261;SDS011;40174;52.364;6.452;2023-02-15T01:49:49;25.35;;;10.73;;
54261;SDS011;40174;52.364;6.452;2023-02-15T01:52:24;26.20;;;11.43;;
54261;SDS011;40174;52.364;6.452;2023-02-15T01:54:50;23.30;;;10.30;;
54261;SDS011;40174;52.364;6.452;2023-02-15T01:57:18;29.95;;;13.40;;
54261;SDS011;40174;52.364;6.452;2023-02-15T01:59:50;26.88;;;11.73;;
54261;SDS011;40174;52.364;6.452;2023-02-15T02:02:22;29.00;;;11.63;;
54261;SDS011;40174;52.364;6.452;2023-02-15T02:04:52;26.80;;;10.00;;
54261;SDS011;40174;52.364;6.452;2023-02-15T02:07:22;29.80;;;11.00;;
54261;SDS011;40174;52.364;6.452;2023-02-15T02:09:52;28.05;;;12.50;;
54261;SDS011;40174;52.364;6.452;2023-02-15T02:12:22;24.42;;;10.10;;
54261;SDS011;40174;52.364;6.452;2023-02-15T02:14:51;22.65;;;9.60;;
54261;SDS011;40174;52.364;6.452;2023-02-15T02:17:21;21.73;;;9.77;;
54261;SDS011;40174;52.364;6.452;2023-02-15T02:20:14;17.90;;;8.75;;
54261;SDS011;40174;52.364;6.452;2023-02-15T02:25:54;19.02;;;10.00;;
54261;SDS011;40174;52.364;6.452;2023-02-15T02:31:40;26.40;;;10.38;;
54261;SDS011;40174;52.364;6.452;2023-02-15T02:34:17;21.95;;;9.88;;
54261;SDS011;40174;52.364;6.452;2023-02-15T02:36:49;23.75;;;9.38;;
54261;SDS011;40174;52.364;6.452;2023-02-15T02:39:23;23.40;;;9.60;;
54261;SDS011;40174;52.364;6.452;2023-02-15T02:41:58;21.88;;;9.57;;
54261;SDS011;40174;52.364;6.452;2023-02-15T02:44:34;23.58;;;10.18;;
54261;SDS011;40174;52.364;6.452;2023-02-15T02:47:08;21.20;;;10.63;;
54261;SDS011;40174;52.364;6.452;2023-02-15T02:49:40;22.75;;;9.70;;
54261;SDS011;40174;52.364;6.452;2023-02-15T02:55:06;21.50;;;9.73;;
54261;SDS011;40174;52.364;6.452;2023-02-15T02:57:37;22.30;;;9.48;;
54261;SDS011;40174;52.364;6.452;2023-02-15T03:00:09;25.73;;;10.68;;
54261;SDS011;40174;52.364;6.452;2023-02-15T03:02:39;24.38;;;10.55;;
54261;SDS011;40174;52.364;6.452;2023-02-15T03:05:12;21.98;;;9.82;;
54261;SDS011;40174;52.364;6.452;2023-02-15T03:07:41;24.48;;;10.65;;
54261;SDS011;40174;52.364;6.452;2023-02-15T03:10:13;28.42;;;11.45;;
54261;SDS011;40174;52.364;6.452;2023-02-15T03:12:41;29.63;;;12.32;;
54261;SDS011;40174;52.364;6.452;2023-02-15T03:15:09;23.52;;;10.48;;
54261;SDS011;40174;52.364;6.452;2023-02-15T03:17:40;26.77;;;11.35;;
54261;SDS011;40174;52.364;6.452;2023-02-15T03:20:12;28.52;;;11.68;;
54261;SDS011;40174;52.364;6.452;2023-02-15T03:22:45;30.85;;;11.85;;
54261;SDS011;40174;52.364;6.452;2023-02-15T03:25:17;24.35;;;11.10;;
54261;SDS011;40174;52.364;6.452;2023-02-15T03:27:47;30.00;;;11.63;;
54261;SDS011;40174;52.364;6.452;2023-02-15T03:30:20;31.80;;;12.07;;
54261;SDS011;40174;52.364;6.452;2023-02-15T03:32:49;26.77;;;10.95;;
54261;SDS011;40174;52.364;6.452;2023-02-15T03:35:19;26.20;;;10.00;;
54261;SDS011;40174;52.364;6.452;2023-02-15T03:37:50;24.55;;;9.35;;
54261;SDS011;40174;52.364;6.452;2023-02-15T03:40:21;30.00;;;10.65;;
54261;SDS011;40174;52.364;6.452;2023-02-15T03:43:11;21.67;;;9.55;;
54261;SDS011;40174;52.364;6.452;2023-02-15T03:45:44;23.13;;;9.70;;
54261;SDS011;40174;52.364;6.452;2023-02-15T03:48:21;19.98;;;9.25;;
54261;SDS011;40174;52.364;6.452;2023-02-15T03:50:53;15.98;;;8.40;;
54261;SDS011;40174;52.364;6.452;2023-02-15T03:53:40;20.83;;;9.25;;
54261;SDS011;40174;52.364;6.452;2023-02-15T03:56:09;19.77;;;7.85;;
54261;SDS011;40174;52.364;6.452;2023-02-15T03:58:35;20.25;;;8.00;;
54261;SDS011;40174;52.364;6.452;2023-02-15T04:01:21;25.45;;;8.82;;
54261;SDS011;40174;52.364;6.452;2023-02-15T04:04:10;19.17;;;8.50;;
54261;SDS011;40174;52.364;6.452;2023-02-15T04:06:42;19.13;;;8.57;;
54261;SDS011;40174;52.364;6.452;2023-02-15T04:09:09;18.85;;;8.85;;
54261;SDS011;40174;52.364;6.452;2023-02-15T04:11:53;17.90;;;7.38;;
54261;SDS011;40174;52.364;6.452;2023-02-15T04:14:20;18.55;;;8.82;;
54261;SDS011;40174;52.364;6.452;2023-02-15T04:17:05;21.70;;;8.90;;
54261;SDS011;40174;52.364;6.452;2023-02-15T04:19:32;23.08;;;9.40;;
54261;SDS011;40174;52.364;6.452;2023-02-15T04:22:18;21.88;;;8.95;;
54261;SDS011;40174;52.364;6.452;2023-02-15T04:25:02;27.25;;;10.15;;
54261;SDS011;40174;52.364;6.452;2023-02-15T04:27:38;26.65;;;10.15;;
54261;SDS011;40174;52.364;6.452;2023-02-15T04:30:06;29.05;;;11.80;;
54261;SDS011;40174;52.364;6.452;2023-02-15T04:32:35;20.42;;;8.50;;
54261;SDS011;40174;52.364;6.452;2023-02-15T04:35:03;24.55;;;9.50;;
54261;SDS011;40174;52.364;6.452;2023-02-15T04:37:31;19.83;;;9.13;;
54261;SDS011;40174;52.364;6.452;2023-02-15T04:39:58;23.00;;;9.38;;
54261;SDS011;40174;52.364;6.452;2023-02-15T04:42:25;27.73;;;10.27;;
54261;SDS011;40174;52.364;6.452;2023-02-15T04:44:52;30.83;;;10.32;;
54261;SDS011;40174;52.364;6.452;2023-02-15T04:47:18;24.90;;;10.50;;
54261;SDS011;40174;52.364;6.452;2023-02-15T04:49:45;21.67;;;9.23;;
54261;SDS011;40174;52.364;6.452;2023-02-15T04:52:12;26.52;;;10.15;;
54261;SDS011;40174;52.364;6.452;2023-02-15T04:54:40;24.20;;;9.63;;
54261;SDS011;40174;52.364;6.452;2023-02-15T04:57:07;22.73;;;8.65;;
54261;SDS011;40174;52.364;6.452;2023-02-15T04:59:33;22.02;;;8.57;;
54261;SDS011;40174;52.364;6.452;2023-02-15T05:02:00;29.52;;;10.40;;
54261;SDS011;40174;52.364;6.452;2023-02-15T05:04:27;25.75;;;9.55;;
54261;SDS011;40174;52.364;6.452;2023-02-15T05:06:53;23.70;;;9.82;;
54261;SDS011;40174;52.364;6.452;2023-02-15T05:09:20;25.60;;;10.35;;
54261;SDS011;40174;52.364;6.452;2023-02-15T05:11:48;28.30;;;9.82;;
54261;SDS011;40174;52.364;6.452;2023-02-15T05:14:15;23.77;;;10.27;;
54261;SDS011;40174;52.364;6.452;2023-02-15T05:16:41;30.17;;;10.43;;
54261;SDS011;40174;52.364;6.452;2023-02-15T05:19:08;28.05;;;11.57;;
54261;SDS011;40174;52.364;6.452;2023-02-15T05:21:35;25.73;;;12.23;;
54261;SDS011;40174;52.364;6.452;2023-02-15T05:24:01;30.73;;;12.48;;
54261;SDS011;40174;52.364;6.452;2023-02-15T05:26:50;27.45;;;11.77;;
54261;SDS011;40174;52.364;6.452;2023-02-15T05:29:34;33.53;;;12.80;;
54261;SDS011;40174;52.364;6.452;2023-02-15T05:32:00;37.20;;;11.57;;
54261;SDS011;40174;52.364;6.452;2023-02-15T05:34:27;34.33;;;11.80;;
54261;SDS011;40174;52.364;6.452;2023-02-15T05:36:54;24.42;;;10.43;;
54261;SDS011;40174;52.364;6.452;2023-02-15T05:39:20;30.27;;;10.60;;
54261;SDS011;40174;52.364;6.452;2023-02-15T05:41:47;26.77;;;10.70;;
54261;SDS011;40174;52.364;6.452;2023-02-15T05:44:15;27.90;;;10.63;;
54261;SDS011;40174;52.364;6.452;2023-02-15T05:46:41;29.80;;;10.40;;
54261;SDS011;40174;52.364;6.452;2023-02-15T05:49:08;35.05;;;11.98;;
54261;SDS011;40174;52.364;6.452;2023-02-15T05:51:35;32.53;;;10.15;;
54261;SDS011;40174;52.364;6.452;2023-02-15T05:54:01;24.85;;;10.07;;
54261;SDS011;40174;52.364;6.452;2023-02-15T05:56:28;31.20;;;11.80;;
54261;SDS011;40174;52.364;6.452;2023-02-15T05:58:54;27.58;;;10.30;;
54261;SDS011;40174;52.364;6.452;2023-02-15T06:01:22;34.58;;;11.55;;
54261;SDS011;40174;52.364;6.452;2023-02-15T06:03:49;28.75;;;11.82;;
54261;SDS011;40174;52.364;6.452;2023-02-15T06:06:17;30.83;;;11.00;;
54261;SDS011;40174;52.364;6.452;2023-02-15T06:08:43;29.80;;;9.30;;
54261;SDS011;40174;52.364;6.452;2023-02-15T06:11:10;28.85;;;11.15;;
54261;SDS011;40174;52.364;6.452;2023-02-15T06:13:37;26.85;;;10.15;;
54261;SDS011;40174;52.364;6.452;2023-02-15T06:16:03;25.83;;;11.52;;
54261;SDS011;40174;52.364;6.452;2023-02-15T06:18:31;29.55;;;9.95;;
54261;SDS011;40174;52.364;6.452;2023-02-15T06:20:58;34.08;;;10.43;;
54261;SDS011;40174;52.364;6.452;2023-02-15T06:23:24;28.10;;;10.95;;
54261;SDS011;40174;52.364;6.452;2023-02-15T06:25:51;34.35;;;11.68;;
54261;SDS011;40174;52.364;6.452;2023-02-15T06:28:18;32.00;;;10.95;;
54261;SDS011;40174;52.364;6.452;2023-02-15T06:30:44;29.38;;;10.45;;
54261;SDS011;40174;52.364;6.452;2023-02-15T06:33:11;26.15;;;10.90;;
54261;SDS011;40174;52.364;6.452;2023-02-15T06:35:39;30.45;;;10.10;;
54261;SDS011;40174;52.364;6.452;2023-02-15T06:38:05;32.60;;;10.00;;
54261;SDS011;40174;52.364;6.452;2023-02-15T06:40:32;37.15;;;12.55;;
54261;SDS011;40174;52.364;6.452;2023-02-15T06:42:58;32.60;;;11.90;;
54261;SDS011;40174;52.364;6.452;2023-02-15T06:45:25;39.42;;;11.07;;
54261;SDS011;40174;52.364;6.452;2023-02-15T06:47:52;32.05;;;13.15;;
54261;SDS011;40174;52.364;6.452;2023-02-15T06:50:18;27.50;;;10.00;;
54261;SDS011;40174;52.364;6.452;2023-02-15T06:52:47;32.83;;;11.55;;
54261;SDS011;40174;52.364;6.452;2023-02-15T06:55:13;25.80;;;11.20;;
54261;SDS011;40174;52.364;6.452;2023-02-15T06:57:40;33.35;;;10.45;;
54261;SDS011;40174;52.364;6.452;2023-02-15T07:00:07;29.40;;;11.20;;
54261;SDS011;40174;52.364;6.452;2023-02-15T07:02:34;24.85;;;11.05;;
54261;SDS011;40174;52.364;6.452;2023-02-15T07:05:01;27.75;;;10.68;;
54261;SDS011;40174;52.364;6.452;2023-02-15T07:07:30;29.73;;;11.88;;
54261;SDS011;40174;52.364;6.452;2023-02-15T07:09:58;24.60;;;9.35;;
54261;SDS011;40174;52.364;6.452;2023-02-15T07:12:25;26.85;;;10.05;;
54261;SDS011;40174;52.364;6.452;2023-02-15T07:15:10;29.92;;;12.07;;
54261;SDS011;40174;52.364;6.452;2023-02-15T07:17:38;33.30;;;11.18;;
54261;SDS011;40174;52.364;6.452;2023-02-15T07:20:05;29.55;;;11.80;;
54261;SDS011;40174;52.364;6.452;2023-02-15T07:22:34;39.25;;;11.13;;
54261;SDS011;40174;52.364;6.452;2023-02-15T07:25:02;32.03;;;11.73;;
54261;SDS011;40174;52.364;6.452;2023-02-15T07:27:30;31.38;;;11.32;;
54261;SDS011;40174;52.364;6.452;2023-02-15T07:29:57;28.73;;;11.30;;
54261;SDS011;40174;52.364;6.452;2023-02-15T07:32:26;27.83;;;11.20;;
54261;SDS011;40174;52.364;6.452;2023-02-15T07:34:54;31.17;;;11.43;;
54261;SDS011;40174;52.364;6.452;2023-02-15T07:37:20;39.08;;;12.95;;
54261;SDS011;40174;52.364;6.452;2023-02-15T07:39:47;34.22;;;11.70;;
54261;SDS011;40174;52.364;6.452;2023-02-15T07:42:15;38.15;;;11.75;;
54261;SDS011;40174;52.364;6.452;2023-02-15T07:44:42;33.65;;;12.73;;
54261;SDS011;40174;52.364;6.452;2023-02-15T07:47:09;38.20;;;12.80;;
54261;SDS011;40174;52.364;6.452;2023-02-15T07:49:37;37.67;;;12.25;;
54261;SDS011;40174;52.364;6.452;2023-02-15T07:52:03;38.42;;;13.82;;
54261;SDS011;40174;52.364;6.452;2023-02-15T07:54:30;37.38;;;12.82;;
54261;SDS011;40174;52.364;6.452;2023-02-15T07:56:57;35.45;;;13.77;;
54261;SDS011;40174;52.364;6.452;2023-02-15T07:59:25;32.25;;;13.98;;
54261;SDS011;40174;52.364;6.452;2023-02-15T08:01:52;44.35;;;13.52;;
54261;SDS011;40174;52.364;6.452;2023-02-15T08:04:21;37.95;;;13.57;;
54261;SDS011;40174;52.364;6.452;2023-02-15T08:06:47;40.55;;;14.93;;
54261;SDS011;40174;52.364;6.452;2023-02-15T08:09:19;43.13;;;15.70;;
54261;SDS011;40174;52.364;6.452;2023-02-15T08:11:46;43.03;;;14.55;;
54261;SDS011;40174;52.364;6.452;2023-02-15T08:14:14;41.25;;;14.25;;
54261;SDS011;40174;52.364;6.452;2023-02-15T08:16:44;36.38;;;12.98;;
54261;SDS011;40174;52.364;6.452;2023-02-15T08:19:13;38.03;;;13.45;;
54261;SDS011;40174;52.364;6.452;2023-02-15T08:21:43;41.58;;;14.25;;
54261;SDS011;40174;52.364;6.452;2023-02-15T08:24:11;38.08;;;15.43;;
54261;SDS011;40174;52.364;6.452;2023-02-15T08:26:39;46.63;;;14.95;;
54261;SDS011;40174;52.364;6.452;2023-02-15T08:29:08;43.63;;;13.85;;
54261;SDS011;40174;52.364;6.452;2023-02-15T08:31:35;40.25;;;14.68;;
54261;SDS011;40174;52.364;6.452;2023-02-15T08:34:04;38.63;;;13.77;;
54261;SDS011;40174;52.364;6.452;2023-02-15T08:36:31;43.28;;;15.48;;
54261;SDS011;40174;52.364;6.452;2023-02-15T08:38:58;39.13;;;13.93;;
54261;SDS011;40174;52.364;6.452;2023-02-15T08:41:26;51.75;;;15.48;;
54261;SDS011;40174;52.364;6.452;2023-02-15T08:43:56;46.50;;;16.20;;
54261;SDS011;40174;52.364;6.452;2023-02-15T08:46:24;46.83;;;16.02;;
54261;SDS011;40174;52.364;6.452;2023-02-15T08:48:52;40.00;;;14.80;;
54261;SDS011;40174;52.364;6.452;2023-02-15T08:51:21;56.20;;;16.20;;
54261;SDS011;40174;52.364;6.452;2023-02-15T08:53:49;43.95;;;16.45;;
54261;SDS011;40174;52.364;6.452;2023-02-15T08:56:19;46.05;;;17.20;;
54261;SDS011;40174;52.364;6.452;2023-02-15T08:58:46;53.28;;;17.73;;
54261;SDS011;40174;52.364;6.452;2023-02-15T09:01:14;48.38;;;15.95;;
54261;SDS011;40174;52.364;6.452;2023-02-15T09:03:43;58.75;;;18.27;;
54261;SDS011;40174;52.364;6.452;2023-02-15T09:06:11;46.47;;;16.95;;
54261;SDS011;40174;52.364;6.452;2023-02-15T09:08:40;48.53;;;16.77;;
54261;SDS011;40174;52.364;6.452;2023-02-15T09:11:07;51.92;;;17.88;;
54261;SDS011;40174;52.364;6.452;2023-02-15T09:13:36;56.85;;;18.63;;
54261;SDS011;40174;52.364;6.452;2023-02-15T09:16:04;51.05;;;16.00;;
54261;SDS011;40174;52.364;6.452;2023-02-15T09:18:33;52.35;;;17.27;;
54261;SDS011;40174;52.364;6.452;2023-02-15T09:21:06;55.15;;;18.02;;
54261;SDS011;40174;52.364;6.452;2023-02-15T09:23:34;53.70;;;18.50;;
54261;SDS011;40174;52.364;6.452;2023-02-15T09:26:03;57.35;;;19.13;;
54261;SDS011;40174;52.364;6.452;2023-02-15T09:28:31;49.60;;;17.27;;
54261;SDS011;40174;52.364;6.452;2023-02-15T09:31:04;60.50;;;18.83;;
54261;SDS011;40174;52.364;6.452;2023-02-15T09:33:32;61.25;;;19.58;;
54261;SDS011;40174;52.364;6.452;2023-02-15T09:36:01;60.40;;;18.10;;
54261;SDS011;40174;52.364;6.452;2023-02-15T09:38:28;52.38;;;18.30;;
54261;SDS011;40174;52.364;6.452;2023-02-15T09:40:56;57.03;;;18.77;;
54261;SDS011;40174;52.364;6.452;2023-02-15T09:43:41;59.17;;;19.40;;
54261;SDS011;40174;52.364;6.452;2023-02-15T09:46:20;56.45;;;17.20;;
54261;SDS011;40174;52.364;6.452;2023-02-15T09:49:00;49.72;;;16.65;;
54261;SDS011;40174;52.364;6.452;2023-02-15T09:51:42;51.80;;;18.85;;
54261;SDS011;40174;52.364;6.452;2023-02-15T09:54:22;49.67;;;16.98;;
54261;SDS011;40174;52.364;6.452;2023-02-15T09:57:00;56.42;;;16.15;;
54261;SDS011;40174;52.364;6.452;2023-02-15T09:59:35;49.03;;;16.95;;
54261;SDS011;40174;52.364;6.452;2023-02-15T10:02:11;48.33;;;18.40;;
54261;SDS011;40174;52.364;6.452;2023-02-15T10:04:54;51.15;;;18.30;;
54261;SDS011;40174;52.364;6.452;2023-02-15T10:07:37;42.92;;;15.50;;
54261;SDS011;40174;52.364;6.452;2023-02-15T10:10:21;49.17;;;16.67;;
54261;SDS011;40174;52.364;6.452;2023-02-15T10:15:51;52.60;;;17.85;;
54261;SDS011;40174;52.364;6.452;2023-02-15T10:18:26;55.00;;;18.50;;
54261;SDS011;40174;52.364;6.452;2023-02-15T10:21:02;38.33;;;17.05;;
54261;SDS011;40174;52.364;6.452;2023-02-15T10:23:39;54.53;;;19.45;;
54261;SDS011;40174;52.364;6.452;2023-02-15T10:26:19;45.30;;;16.92;;
54261;SDS011;40174;52.364;6.452;2023-02-15T10:28:49;40.50;;;15.32;;
54261;SDS011;40174;52.364;6.452;2023-02-15T10:31:22;46.38;;;18.05;;
54261;SDS011;40174;52.364;6.452;2023-02-15T10:33:55;52.15;;;16.42;;
54261;SDS011;40174;52.364;6.452;2023-02-15T10:36:38;46.67;;;17.38;;
54261;SDS011;40174;52.364;6.452;2023-02-15T10:39:25;45.60;;;17.50;;
54261;SDS011;40174;52.364;6.452;2023-02-15T10:44:38;38.20;;;14.90;;
54261;SDS011;40174;52.364;6.452;2023-02-15T10:47:29;50.38;;;17.05;;
54261;SDS011;40174;52.364;6.452;2023-02-15T10:50:11;45.53;;;16.52;;
54261;SDS011;40174;52.364;6.452;2023-02-15T10:52:49;43.33;;;16.77;;
54261;SDS011;40174;52.364;6.452;2023-02-15T10:55:29;37.40;;;14.27;;
54261;SDS011;40174;52.364;6.452;2023-02-15T10:58:08;42.83;;;15.30;;
54261;SDS011;40174;52.364;6.452;2023-02-15T11:00:45;46.58;;;15.63;;
54261;SDS011;40174;52.364;6.452;2023-02-15T11:03:28;38.58;;;14.88;;
54261;SDS011;40174;52.364;6.452;2023-02-15T11:06:03;47.15;;;16.40;;
54261;SDS011;40174;52.364;6.452;2023-02-15T11:08:36;40.85;;;15.68;;
54261;SDS011;40174;52.364;6.452;2023-02-15T11:11:07;43.63;;;14.55;;
54261;SDS011;40174;52.364;6.452;2023-02-15T11:13:39;41.03;;;15.00;;
54261;SDS011;40174;52.364;6.452;2023-02-15T11:16:13;39.50;;;14.02;;
54261;SDS011;40174;52.364;6.452;2023-02-15T11:18:43;39.42;;;13.98;;
54261;SDS011;40174;52.364;6.452;2023-02-15T11:21:17;42.03;;;14.63;;
54261;SDS011;40174;52.364;6.452;2023-02-15T11:23:48;40.40;;;14.93;;
54261;SDS011;40174;52.364;6.452;2023-02-15T11:26:15;42.03;;;14.10;;
54261;SDS011;40174;52.364;6.452;2023-02-15T11:28:49;33.13;;;13.73;;
54261;SDS011;40174;52.364;6.452;2023-02-15T11:31:22;46.20;;;14.38;;
54261;SDS011;40174;52.364;6.452;2023-02-15T11:33:52;35.60;;;14.48;;
54261;SDS011;40174;52.364;6.452;2023-02-15T11:36:22;42.75;;;14.40;;
54261;SDS011;40174;52.364;6.452;2023-02-15T11:38:52;32.90;;;11.98;;
54261;SDS011;40174;52.364;6.452;2023-02-15T11:41:25;37.67;;;13.27;;
54261;SDS011;40174;52.364;6.452;2023-02-15T11:43:56;31.00;;;11.73;;
54261;SDS011;40174;52.364;6.452;2023-02-15T11:46:28;36.22;;;11.70;;
54261;SDS011;40174;52.364;6.452;2023-02-15T11:48:55;38.00;;;15.15;;
54261;SDS011;40174;52.364;6.452;2023-02-15T11:51:23;33.03;;;13.60;;
54261;SDS011;40174;52.364;6.452;2023-02-15T11:53:52;31.38;;;12.30;;
54261;SDS011;40174;52.364;6.452;2023-02-15T11:56:20;36.00;;;12.38;;
54261;SDS011;40174;52.364;6.452;2023-02-15T11:58:49;31.63;;;11.15;;
54261;SDS011;40174;52.364;6.452;2023-02-15T12:01:22;30.85;;;11.45;;
54261;SDS011;40174;52.364;6.452;2023-02-15T12:03:56;31.30;;;11.50;;
54261;SDS011;40174;52.364;6.452;2023-02-15T12:06:26;33.88;;;10.82;;
54261;SDS011;40174;52.364;6.452;2023-02-15T12:08:57;29.20;;;10.88;;
54261;SDS011;40174;52.364;6.452;2023-02-15T12:11:31;28.02;;;10.75;;
54261;SDS011;40174;52.364;6.452;2023-02-15T12:14:01;31.63;;;11.20;;
54261;SDS011;40174;52.364;6.452;2023-02-15T12:16:32;29.83;;;10.60;;
54261;SDS011;40174;52.364;6.452;2023-02-15T12:19:12;27.58;;;10.13;;
54261;SDS011;40174;52.364;6.452;2023-02-15T12:21:49;27.00;;;11.55;;
54261;SDS011;40174;52.364;6.452;2023-02-15T12:24:18;27.35;;;10.13;;
54261;SDS011;40174;52.364;6.452;2023-02-15T12:26:56;31.58;;;11.02;;
54261;SDS011;40174;52.364;6.452;2023-02-15T12:29:25;29.27;;;11.55;;
54261;SDS011;40174;52.364;6.452;2023-02-15T12:31:55;30.67;;;11.48;;
54261;SDS011;40174;52.364;6.452;2023-02-15T12:34:25;30.70;;;11.07;;
54261;SDS011;40174;52.364;6.452;2023-02-15T12:36:56;27.23;;;10.43;;
54261;SDS011;40174;52.364;6.452;2023-02-15T12:39:27;24.83;;;9.70;;
54261;SDS011;40174;52.364;6.452;2023-02-15T12:42:00;29.77;;;10.93;;
54261;SDS011;40174;52.364;6.452;2023-02-15T12:44:29;27.83;;;10.15;;
54261;SDS011;40174;52.364;6.452;2023-02-15T12:46:58;26.48;;;10.80;;
54261;SDS011;40174;52.364;6.452;2023-02-15T12:49:27;28.48;;;10.00;;
54261;SDS011;40174;52.364;6.452;2023-02-15T12:51:55;36.33;;;9.95;;
54261;SDS011;40174;52.364;6.452;2023-02-15T12:54:31;28.85;;;9.90;;
54261;SDS011;40174;52.364;6.452;2023-02-15T12:57:12;29.58;;;10.30;;
54261;SDS011;40174;52.364;6.452;2023-02-15T12:59:53;31.15;;;11.23;;
54261;SDS011;40174;52.364;6.452;2023-02-15T13:02:23;22.63;;;10.07;;
54261;SDS011;40174;52.364;6.452;2023-02-15T13:04:54;31.00;;;12.20;;
54261;SDS011;40174;52.364;6.452;2023-02-15T13:07:23;26.77;;;11.05;;
54261;SDS011;40174;52.364;6.452;2023-02-15T13:09:56;31.83;;;11.77;;
54261;SDS011;40174;52.364;6.452;2023-02-15T13:12:24;31.27;;;10.85;;
54261;SDS011;40174;52.364;6.452;2023-02-15T13:14:52;32.42;;;11.45;;
54261;SDS011;40174;52.364;6.452;2023-02-15T13:17:23;28.40;;;10.88;;
54261;SDS011;40174;52.364;6.452;2023-02-15T13:19:56;27.73;;;11.32;;
54261;SDS011;40174;52.364;6.452;2023-02-15T13:22:28;30.60;;;11.82;;
54261;SDS011;40174;52.364;6.452;2023-02-15T13:25:04;27.20;;;10.82;;
54261;SDS011;40174;52.364;6.452;2023-02-15T13:27:39;31.33;;;10.80;;
54261;SDS011;40174;52.364;6.452;2023-02-15T13:32:52;25.02;;;10.23;;
54261;SDS011;40174;52.364;6.452;2023-02-15T13:35:23;28.02;;;11.88;;
54261;SDS011;40174;52.364;6.452;2023-02-15T13:38:06;24.38;;;10.18;;
54261;SDS011;40174;52.364;6.452;2023-02-15T13:40:43;28.20;;;10.77;;
54261;SDS011;40174;52.364;6.452;2023-02-15T13:43:19;29.70;;;11.57;;
54261;SDS011;40174;52.364;6.452;2023-02-15T13:45:56;28.70;;;10.52;;
54261;SDS011;40174;52.364;6.452;2023-02-15T13:48:36;27.15;;;10.15;;
54261;SDS011;40174;52.364;6.452;2023-02-15T13:51:13;27.15;;;10.68;;
54261;SDS011;40174;52.364;6.452;2023-02-15T13:53:54;32.47;;;11.73;;
54261;SDS011;40174;52.364;6.452;2023-02-15T13:56:28;29.75;;;12.00;;
54261;SDS011;40174;52.364;6.452;2023-02-15T13:59:11;28.50;;;12.13;;
54261;SDS011;40174;52.364;6.452;2023-02-15T14:01:52;31.38;;;12.40;;
54261;SDS011;40174;52.364;6.452;2023-02-15T14:04:26;24.98;;;11.73;;
54261;SDS011;40174;52.364;6.452;2023-02-15T14:07:10;29.42;;;11.65;;
54261;SDS011;40174;52.364;6.452;2023-02-15T14:09:48;27.48;;;12.15;;
54261;SDS011;40174;52.364;6.452;2023-02-15T14:12:33;34.88;;;12.60;;
54261;SDS011;40174;52.364;6.452;2023-02-15T14:15:09;29.25;;;11.55;;
54261;SDS011;40174;52.364;6.452;2023-02-15T14:17:53;26.55;;;11.48;;
54261;SDS011;40174;52.364;6.452;2023-02-15T14:23:01;29.40;;;11.55;;
54261;SDS011;40174;52.364;6.452;2023-02-15T14:25:38;32.10;;;11.82;;
54261;SDS011;40174;52.364;6.452;2023-02-15T14:28:09;28.05;;;11.95;;
54261;SDS011;40174;52.364;6.452;2023-02-15T14:30:40;33.03;;;12.30;;
54261;SDS011;40174;52.364;6.452;2023-02-15T14:33:14;28.42;;;11.68;;
54261;SDS011;40174;52.364;6.452;2023-02-15T14:35:55;27.33;;;12.43;;
54261;SDS011;40174;52.364;6.452;2023-02-15T14:38:32;36.38;;;12.48;;
54261;SDS011;40174;52.364;6.452;2023-02-15T14:41:12;28.35;;;12.70;;
54261;SDS011;40174;52.364;6.452;2023-02-15T14:43:48;31.98;;;12.45;;
54261;SDS011;40174;52.364;6.452;2023-02-15T14:46:23;30.23;;;10.93;;
54261;SDS011;40174;52.364;6.452;2023-02-15T14:48:57;29.40;;;12.02;;
54261;SDS011;40174;52.364;6.452;2023-02-15T14:57:28;30.17;;;12.93;;
54261;SDS011;40174;52.364;6.452;2023-02-15T14:59:57;29.67;;;11.70;;
54261;SDS011;40174;52.364;6.452;2023-02-15T15:02:26;30.45;;;12.10;;
54261;SDS011;40174;52.364;6.452;2023-02-15T15:04:56;33.30;;;11.35;;
54261;SDS011;40174;52.364;6.452;2023-02-15T15:07:27;26.17;;;11.80;;
54261;SDS011;40174;52.364;6.452;2023-02-15T15:10:04;31.75;;;11.88;;
54261;SDS011;40174;52.364;6.452;2023-02-15T15:12:40;31.98;;;12.43;;
54261;SDS011;40174;52.364;6.452;2023-02-15T15:15:10;30.85;;;11.43;;